Time;durP1;ratioP1;P1;durP2;ratioP2;P2;SDS_P1;SDS_P2;PMS_P1;PMS_P2;Temp;Humidity;BMP_temperature;BMP_pressure;BME280_temperature;BME280_humidity;BME280_pressure;Samples;Min_cycle;Max_cycle;Signal;HPM_P1;HPM_P2
2023/06/18 00:02:01;;;;;;;2.30;1.80;;;;;;;16.96;81.09;98477.98;109288;1254;73195;-23
2023/06/18 00:04:28;;;;;;;4.10;2.40;;;;;;;17.30;81.08;98479.08;109394;1254;72681;-23
2023/06/18 00:06:56;;;;;;;4.60;2.60;;;;;;;17.75;79.55;98482.46;109417;1255;58778;-23
2023/06/18 00:09:23;;;;;;;2.40;2.20;;;;;;;17.82;78.57;98480.59;109412;1260;59996;-23
2023/06/18 00:11:51;;;;;;;5.20;3.80;;;;;;;17.63;78.58;98475.19;109412;1254;71786;-23
2023/06/18 00:14:18;;;;;;;3.60;3.20;;;;;;;17.34;79.78;98473.83;109451;1254;74519;-23
2023/06/18 00:16:46;;;;;;;6.40;4.30;;;;;;;17.04;80.33;98477.85;109406;1254;71437;-23
2023/06/18 00:19:14;;;;;;;2.90;2.30;;;;;;;16.82;81.20;98475.52;109279;1254;61651;-23
2023/06/18 00:21:41;;;;;;;9.00;3.80;;;;;;;17.17;80.56;98473.57;109262;1260;58806;-23
2023/06/18 00:24:09;;;;;;;6.40;3.70;;;;;;;17.61;81.76;98474.34;109439;1254;73127;-23
2023/06/18 00:26:36;;;;;;;5.20;3.70;;;;;;;17.65;81.82;98476.63;109400;1254;74267;-24
2023/06/18 00:29:04;;;;;;;6.90;3.90;;;;;;;17.56;80.81;98471.95;109257;1254;72762;-23
2023/06/18 00:31:34;;;;;;;4.90;4.10;;;;;;;17.38;80.90;98469.91;109400;1257;58803;-23
2023/06/18 00:34:06;;;;;;;4.20;3.50;;;;;;;17.15;80.66;98470.11;109407;1254;58783;-23
2023/06/18 00:36:38;;;;;;;4.20;3.40;;;;;;;16.99;81.11;98471.52;109311;1254;71852;-23
2023/06/18 00:39:07;;;;;;;5.20;3.30;;;;;;;17.43;81.12;98472.15;109292;1254;74307;-24
2023/06/18 00:41:35;;;;;;;6.40;4.00;;;;;;;17.92;79.82;98472.71;109397;1254;70485;-23
2023/06/18 00:44:03;;;;;;;5.50;4.60;;;;;;;17.95;78.51;98468.17;109387;1254;58935;-23
2023/06/18 00:46:31;;;;;;;4.80;3.90;;;;;;;17.74;77.38;98469.25;109392;1254;60024;-23
2023/06/18 00:48:58;;;;;;;6.30;3.80;;;;;;;17.40;77.59;98466.50;109400;1254;72990;-23
2023/06/18 00:51:31;;;;;;;6.10;4.10;;;;;;;17.13;78.04;98470.24;109307;1254;74406;-23
2023/06/18 00:53:58;;;;;;;4.30;3.90;;;;;;;16.86;79.57;98471.21;109335;1254;70419;-23
2023/06/18 00:56:29;;;;;;;4.40;2.70;;;;;;;16.68;80.44;98474.18;109098;1254;61678;-23
2023/06/18 00:58:57;;;;;;;4.00;2.90;;;;;;;17.12;79.73;98472.64;109245;1254;60032;-23
2023/06/18 01:01:25;;;;;;;3.90;3.20;;;;;;;17.60;78.56;98477.80;109142;1254;73890;-23
2023/06/18 01:03:56;;;;;;;3.80;2.90;;;;;;;17.61;76.96;98475.25;109309;1254;73668;-23
2023/06/18 01:06:26;;;;;;;7.20;4.70;;;;;;;17.28;77.29;98473.92;109317;1254;72752;-23
2023/06/18 01:08:55;;;;;;;4.20;3.80;;;;;;;17.00;79.33;98479.00;109122;1254;60106;-23
2023/06/18 01:11:25;;;;;;;8.40;3.70;;;;;;;16.74;80.20;98482.27;109145;1254;58649;-23
2023/06/18 01:13:53;;;;;;;4.80;3.70;;;;;;;16.49;79.81;98483.73;109151;1254;74073;-23
2023/06/18 01:16:24;;;;;;;2.30;1.10;;;;;;;16.29;80.27;98480.95;109337;1254;74300;-23
2023/06/18 01:18:52;;;;;;;2.90;2.50;;;;;;;16.70;81.02;98480.10;109314;1254;71904;-23
2023/06/18 01:21:20;;;;;;;4.20;2.80;;;;;;;17.16;79.63;98486.71;109118;1254;60025;-23
2023/06/18 01:24:12;;;;;;;5.00;3.20;;;;;;;17.15;79.28;98486.48;109287;1254;60020;-23
2023/06/18 01:26:41;;;;;;;2.90;2.60;;;;;;;16.94;78.92;98479.75;109304;1254;73823;-23
2023/06/18 01:29:10;;;;;;;4.40;3.40;;;;;;;16.72;78.35;98481.96;109317;1254;73566;-23
2023/06/18 01:31:38;;;;;;;2.50;2.30;;;;;;;16.47;79.22;98481.48;109098;1254;72678;-23
2023/06/18 01:34:06;;;;;;;2.20;1.70;;;;;;;16.28;80.47;98482.77;109344;1254;60717;-23
2023/06/18 01:36:37;;;;;;;4.50;2.30;;;;;;;16.68;80.87;98482.38;109372;1254;58720;-23
2023/06/18 01:39:12;;;;;;;4.30;3.10;;;;;;;17.18;79.13;98481.04;109092;1254;74323;-23
2023/06/18 01:41:41;;;;;;;4.20;3.60;;;;;;;17.20;77.71;98479.89;109185;1254;74383;-23
2023/06/18 01:44:12;;;;;;;5.60;3.80;;;;;;;16.95;78.14;98476.41;109114;1254;72628;-23
2023/06/18 01:46:41;;;;;;;5.10;4.60;;;;;;;16.69;78.82;98475.45;109135;1254;60177;-23
2023/06/18 01:49:08;;;;;;;6.60;5.10;;;;;;;16.43;79.94;98479.81;109227;1254;58792;-23
2023/06/18 01:51:40;;;;;;;4.30;2.60;;;;;;;16.22;81.10;98476.98;109304;1254;72818;-23
2023/06/18 01:54:07;;;;;;;2.00;1.80;;;;;;;16.64;80.42;98476.73;109153;1257;73065;-24
2023/06/18 01:56:35;;;;;;;2.50;2.30;;;;;;;17.11;78.47;98477.58;109138;1257;72638;-23
2023/06/18 01:59:03;;;;;;;1.80;1.70;;;;;;;17.03;76.53;98477.50;109100;1257;58827;-23
2023/06/18 02:01:34;;;;;;;2.40;2.20;;;;;;;16.73;77.28;98478.36;109119;1260;60025;-23
2023/06/18 02:04:02;;;;;;;2.70;2.40;;;;;;;16.40;79.07;98481.02;109294;1256;73966;-23
2023/06/18 02:06:30;;;;;;;2.80;2.60;;;;;;;16.14;80.91;98480.86;109302;1256;73291;-23
2023/06/18 02:08:58;;;;;;;2.20;2.00;;;;;;;15.96;81.36;98483.10;109210;1256;73113;-23
2023/06/18 02:11:26;;;;;;;2.50;2.10;;;;;;;16.36;81.79;98482.31;109096;1257;60114;-23
2023/06/18 02:13:54;;;;;;;2.60;2.20;;;;;;;16.85;79.73;98481.44;109141;1257;60025;-23
2023/06/18 02:16:22;;;;;;;2.20;1.70;;;;;;;16.83;77.30;98478.69;109164;1257;73958;-23
2023/06/18 02:18:49;;;;;;;2.10;1.90;;;;;;;16.60;78.74;98481.90;109160;1257;74314;-23
2023/06/18 02:21:17;;;;;;;5.00;3.10;;;;;;;16.33;79.79;98488.30;109118;1256;72608;-23
2023/06/18 02:23:46;;;;;;;6.70;2.90;;;;;;;16.09;80.89;98487.19;109264;1256;58855;-23
2023/06/18 02:26:16;;;;;;;1.90;1.60;;;;;;;15.93;81.61;98491.66;109145;1257;60110;-23
2023/06/18 02:28:44;;;;;;;2.70;2.30;;;;;;;16.28;80.98;98497.83;109268;1256;73079;-23
2023/06/18 02:31:12;;;;;;;3.30;2.80;;;;;;;16.77;79.05;98496.43;109124;1256;73049;-23
2023/06/18 02:33:40;;;;;;;5.30;3.80;;;;;;;16.89;78.20;98496.05;109092;1257;71395;-23
2023/06/18 02:36:09;;;;;;;4.70;3.70;;;;;;;16.79;78.12;98498.14;109255;1256;60065;-23
2023/06/18 02:38:38;;;;;;;5.00;3.50;;;;;;;16.60;78.46;98500.46;109163;1256;58979;-23
2023/06/18 02:41:06;;;;;;;6.10;4.20;;;;;;;16.47;78.59;98506.45;109270;1256;73940;-23
2023/06/18 02:43:36;;;;;;;3.20;2.70;;;;;;;16.50;78.88;98508.06;109230;1257;74464;-23
2023/06/18 02:46:04;;;;;;;7.10;3.00;;;;;;;17.09;76.76;98505.86;109125;1255;71483;-23
2023/06/18 02:48:31;;;;;;;4.50;3.30;;;;;;;17.65;74.47;98506.03;109086;1255;60107;-23
2023/06/18 02:50:59;;;;;;;4.40;3.30;;;;;;;17.84;73.96;98506.23;109115;1256;60013;-23
2023/06/18 02:53:27;;;;;;;3.10;2.80;;;;;;;17.84;73.69;98506.14;109109;1256;73869;-23
2023/06/18 02:55:56;;;;;;;5.50;4.20;;;;;;;17.60;73.67;98505.34;109093;1257;73163;-23
2023/06/18 02:58:28;;;;;;;4.30;3.40;;;;;;;17.39;74.09;98509.20;109043;1257;73814;-23
2023/06/18 03:01:04;;;;;;;6.80;4.10;;;;;;;17.10;74.32;98503.41;108961;1257;58778;-23
2023/06/18 03:03:38;;;;;;;4.10;2.60;;;;;;;16.78;75.83;98512.23;109063;1256;60052;-23
2023/06/18 03:06:08;;;;;;;4.90;3.10;;;;;;;17.23;76.10;98516.34;109054;1256;74003;-23
2023/06/18 03:08:38;;;;;;;4.60;3.60;;;;;;;17.95;73.79;98519.84;109173;1256;74354;-23
2023/06/18 03:11:08;;;;;;;4.30;3.80;;;;;;;18.26;71.97;98523.27;109104;1257;71805;-23
2023/06/18 03:13:39;;;;;;;5.30;4.10;;;;;;;18.31;71.65;98524.52;108975;1262;60206;-23
2023/06/18 03:16:10;;;;;;;5.30;4.50;;;;;;;18.23;71.97;98525.61;109043;1256;58790;-23
2023/06/18 03:18:41;;;;;;;6.10;4.60;;;;;;;18.16;72.46;98524.72;109096;1256;71759;-23
2023/06/18 03:21:11;;;;;;;8.20;4.50;;;;;;;18.05;72.51;98526.86;109124;1257;74363;-23
2023/06/18 03:23:40;;;;;;;4.60;4.20;;;;;;;17.95;72.86;98529.46;109102;1255;71642;-23
2023/06/18 03:26:11;;;;;;;4.80;2.70;;;;;;;17.99;73.32;98529.92;108998;1257;59394;-23
2023/06/18 03:28:43;;;;;;;4.90;3.50;;;;;;;18.78;72.69;98529.61;109043;1257;58730;-23
2023/06/18 03:31:13;;;;;;;4.40;3.60;;;;;;;19.62;70.36;98527.06;109016;1257;73994;-23
2023/06/18 03:33:45;;;;;;;3.70;3.40;;;;;;;19.97;68.90;98524.89;109106;1256;73292;-23
2023/06/18 03:36:17;;;;;;;5.20;3.50;;;;;;;20.02;68.37;98519.44;109025;1257;71220;-23
2023/06/18 03:38:47;;;;;;;5.30;3.70;;;;;;;19.87;68.43;98520.91;109068;1257;58790;-23
2023/06/18 03:41:16;;;;;;;4.30;3.60;;;;;;;19.71;69.28;98519.42;109072;1257;58718;-23
2023/06/18 03:43:46;;;;;;;3.90;3.20;;;;;;;19.56;70.00;98522.52;109102;1256;73900;-23
2023/06/18 03:46:16;;;;;;;5.50;3.60;;;;;;;19.34;70.68;98524.22;108988;1257;74460;-23
2023/06/18 03:48:47;;;;;;;4.90;3.80;;;;;;;19.00;72.19;98530.20;109083;1256;71481;-24
2023/06/18 03:51:18;;;;;;;3.80;2.60;;;;;;;18.72;73.56;98529.25;109002;1257;60417;-23
2023/06/18 04:01:22;;;;;;;4.90;4.10;;;;;;;20.46;70.26;98533.77;102592;1292;600306;-23
2023/06/18 04:03:50;;;;;;;5.80;4.70;;;;;;;20.61;69.82;98529.51;104898;1270;61147;-22
2023/06/18 04:06:19;;;;;;;5.20;4.70;;;;;;;20.76;69.29;98535.83;104877;1267;61187;-23
2023/06/18 04:08:47;;;;;;;6.40;5.20;;;;;;;20.86;69.37;98537.66;104804;1277;71017;-23
2023/06/18 04:11:15;;;;;;;7.30;5.70;;;;;;;20.86;68.41;98538.73;104840;1272;74317;-23
2023/06/18 04:13:42;;;;;;;7.60;6.10;;;;;;;20.91;68.73;98538.77;104813;1275;71689;-24
2023/06/18 04:16:11;;;;;;;4.60;3.50;;;;;;;21.05;68.05;98540.71;103177;1270;2502254;-23
2023/06/18 04:26:17;;;;;;;6.30;5.70;;;;;;;22.84;63.82;98540.77;102671;1293;599946;-23
2023/06/18 04:28:45;;;;;;;6.80;5.60;;;;;;;22.72;63.87;98541.11;108710;1265;58790;-23
2023/06/18 04:31:13;;;;;;;7.40;6.50;;;;;;;22.67;63.52;98543.23;108605;1264;59990;-23
2023/06/18 04:33:40;;;;;;;6.70;5.90;;;;;;;22.76;63.39;98541.11;108740;1265;72250;-23
2023/06/18 04:36:08;;;;;;;8.30;6.80;;;;;;;22.87;62.96;98542.59;108628;1265;74297;-23
2023/06/18 04:38:36;;;;;;;7.30;6.00;;;;;;;22.95;63.08;98545.91;108616;1265;71381;-23
2023/06/18 04:41:04;;;;;;;6.80;6.20;;;;;;;23.03;63.26;98543.86;106870;1262;2515111;-23
2023/06/18 04:43:32;;;;;;;7.60;6.10;;;;;;;23.16;63.13;98543.70;108805;1263;59994;-23
2023/06/18 04:46:00;;;;;;;7.70;6.70;;;;;;;23.33;62.19;98540.95;108783;1263;69798;-23
2023/06/18 04:48:27;;;;;;;7.20;6.50;;;;;;;23.45;61.98;98542.94;108901;1262;73465;-23
2023/06/18 04:50:55;;;;;;;7.90;6.10;;;;;;;23.62;61.87;98541.77;108799;1262;72616;-23
2023/06/18 04:53:22;;;;;;;8.80;6.10;;;;;;;23.86;61.37;98546.62;108871;1262;58911;-23
2023/06/18 04:55:50;;;;;;;8.50;5.90;;;;;;;24.04;60.65;98552.70;108780;1263;60076;-23
2023/06/18 04:58:20;;;;;;;6.50;5.80;;;;;;;24.19;60.03;98552.64;108731;1263;73009;-23
2023/06/18 05:00:49;;;;;;;6.80;6.10;;;;;;;24.41;59.03;98558.08;108791;1263;73216;-23
2023/06/18 05:05:48;;;;;;;9.20;7.30;;;;;;;24.82;58.39;98557.75;102665;1292;600302;-23
2023/06/18 05:08:17;;;;;;;8.20;7.50;;;;;;;24.88;55.42;98553.94;104902;1270;61248;-22
2023/06/18 05:10:45;;;;;;;9.30;7.90;;;;;;;24.98;55.94;98556.52;104831;1266;61082;-22
2023/06/18 05:13:13;;;;;;;8.80;7.20;;;;;;;25.15;55.82;98558.48;104843;1272;72280;-22
2023/06/18 05:15:41;;;;;;;12.10;8.30;;;;;;;25.25;56.32;98561.64;104849;1267;74320;-22
2023/06/18 05:18:09;;;;;;;11.40;8.60;;;;;;;25.46;55.29;98564.23;104832;1269;72652;-22
2023/06/18 05:20:37;;;;;;;11.40;9.50;;;;;;;25.64;53.06;98564.55;103049;1263;2518134;-22
2023/06/18 05:23:04;;;;;;;16.30;9.40;;;;;;;25.73;52.43;98566.13;105190;1263;61110;-22
2023/06/18 05:25:36;;;;;;;9.10;7.90;;;;;;;25.76;50.66;98563.08;104895;1265;72288;-22
2023/06/18 05:28:04;;;;;;;7.90;6.50;;;;;;;25.48;52.32;98566.58;105058;1263;74315;-22
2023/06/18 05:30:34;;;;;;;8.70;6.20;;;;;;;25.65;52.22;98569.80;108682;1263;71494;-23
2023/06/18 05:33:01;;;;;;;7.40;6.20;;;;;;;25.84;51.97;98568.09;108742;1261;60292;-23
2023/06/18 05:35:29;;;;;;;10.40;6.30;;;;;;;25.98;51.27;98567.67;108742;1265;58782;-23
2023/06/18 05:37:57;;;;;;;7.90;6.00;;;;;;;26.24;50.82;98568.20;108764;1261;73032;-23
2023/06/18 05:40:25;;;;;;;6.80;5.90;;;;;;;26.13;49.64;98567.25;108730;1261;73083;-23
2023/06/18 05:42:54;;;;;;;6.70;5.90;;;;;;;26.13;51.29;98568.70;108682;1265;71418;-23
2023/06/18 05:45:21;;;;;;;7.60;5.50;;;;;;;26.35;49.44;98573.05;108716;1263;60184;-25
2023/06/18 05:47:49;;;;;;;7.70;5.60;;;;;;;26.10;47.71;98575.30;109145;1259;60074;-23
2023/06/18 05:50:23;;;;;;;6.90;5.40;;;;;;;26.17;49.71;98580.09;109138;1256;73051;-23
2023/06/18 05:52:51;;;;;;;6.90;5.40;;;;;;;26.44;48.87;98582.49;109136;1256;74303;-23
2023/06/18 05:55:19;;;;;;;7.30;5.90;;;;;;;26.64;49.19;98581.13;109086;1257;72679;-23
2023/06/18 05:57:47;;;;;;;5.90;5.30;;;;;;;26.91;47.30;98579.96;109080;1256;60061;-23
2023/06/18 06:00:15;;;;;;;6.50;5.60;;;;;;;27.17;47.44;98582.85;109089;1256;60461;-23
2023/06/18 06:02:43;;;;;;;6.00;4.80;;;;;;;27.19;45.34;98585.11;109104;1256;72186;-23
2023/06/18 06:05:16;;;;;;;7.20;6.00;;;;;;;27.23;46.03;98584.70;109083;1257;74414;-23
2023/06/18 06:07:43;;;;;;;7.00;6.10;;;;;;;27.42;45.31;98588.96;109085;1257;72662;-23
2023/06/18 06:10:17;;;;;;;7.70;5.70;;;;;;;27.60;44.46;98590.50;108976;1257;60075;-23
2023/06/18 06:12:45;;;;;;;7.70;5.10;;;;;;;27.50;45.40;98595.66;108808;1257;60004;-23
2023/06/18 06:15:13;;;;;;;5.90;5.30;;;;;;;27.68;44.08;98592.09;109088;1257;71287;-23
2023/06/18 06:17:40;;;;;;;6.70;5.90;;;;;;;27.70;44.83;98590.68;108994;1257;73046;-23
2023/06/18 06:20:09;;;;;;;7.50;5.70;;;;;;;27.91;44.32;98591.87;108978;1257;72771;-23
2023/06/18 06:22:37;;;;;;;9.50;5.80;;;;;;;27.97;43.19;98589.11;108949;1257;58846;-23
2023/06/18 06:25:05;;;;;;;8.10;5.90;;;;;;;27.88;42.47;98589.64;109094;1257;60014;-23
2023/06/18 06:27:33;;;;;;;6.70;6.00;;;;;;;27.85;42.75;98587.00;108969;1257;73072;-23
2023/06/18 06:30:01;;;;;;;8.20;6.30;;;;;;;27.77;43.28;98588.95;109088;1257;74337;-23
2023/06/18 06:32:29;;;;;;;7.30;5.50;;;;;;;27.93;43.03;98589.02;108954;1257;72739;-23
2023/06/18 06:34:57;;;;;;;7.20;5.80;;;;;;;28.03;43.36;98589.27;108959;1257;58914;-23
2023/06/18 06:37:26;;;;;;;7.00;5.60;;;;;;;28.31;43.34;98593.11;109106;1257;59063;-23
2023/06/18 06:39:54;;;;;;;6.60;5.60;;;;;;;28.48;42.48;98595.41;108977;1257;71867;-23
2023/06/18 06:42:22;;;;;;;6.00;5.30;;;;;;;28.76;42.50;98593.63;108970;1257;73232;-23
2023/06/18 06:45:10;;;;;;;5.60;4.60;;;;;;;29.07;40.69;98594.78;109045;1257;72672;-23
2023/06/18 06:48:00;;;;;;;5.20;4.70;;;;;;;29.41;40.22;98596.54;108887;1257;60052;-23
2023/06/18 06:50:37;;;;;;;4.60;4.10;;;;;;;29.71;39.52;98594.54;109424;1254;59117;-23
2023/06/18 06:53:12;;;;;;;8.30;4.50;;;;;;;29.93;38.70;98594.67;109253;1253;71522;-23
2023/06/18 06:55:39;;;;;;;4.40;3.90;;;;;;;30.11;38.27;98592.09;109260;1254;73186;-23
2023/06/18 06:58:07;;;;;;;4.40;4.00;;;;;;;30.19;37.62;98595.55;109371;1254;62561;-23
2023/06/18 07:00:35;;;;;;;4.80;3.90;;;;;;;30.16;37.38;98595.23;109158;1256;58736;-23
2023/06/18 07:03:03;;;;;;;9.40;3.60;;;;;;;30.13;37.31;98596.30;109215;1254;58805;-23
2023/06/18 07:05:30;;;;;;;5.10;3.80;;;;;;;30.02;36.55;98596.59;109448;1254;64193;-23
2023/06/18 07:07:58;;;;;;;8.30;3.80;;;;;;;29.94;36.79;98597.78;109421;1254;65364;-23
2023/06/18 07:10:25;;;;;;;4.70;3.70;;;;;;;29.95;36.45;98597.36;109299;1254;63749;-23
2023/06/18 07:12:53;;;;;;;5.70;3.40;;;;;;;29.98;35.17;98597.17;109270;1255;60087;-23
2023/06/18 07:15:21;;;;;;;5.90;3.80;;;;;;;29.84;33.99;98599.95;109428;1253;60101;-23
2023/06/18 07:17:48;;;;;;;6.20;3.80;;;;;;;29.79;34.67;98599.83;109308;1254;73031;-23
2023/06/18 07:20:16;;;;;;;5.10;4.10;;;;;;;29.58;31.74;98596.61;109316;1254;74756;-23
2023/06/18 07:22:43;;;;;;;4.80;3.40;;;;;;;29.14;34.22;98595.79;109389;1254;72767;-23
2023/06/18 07:25:11;;;;;;;8.90;3.80;;;;;;;29.46;34.88;98597.06;109400;1254;60075;-22
2023/06/18 07:27:38;;;;;;;7.00;3.80;;;;;;;29.71;34.97;98597.54;109355;1254;58733;-23
2023/06/18 07:30:06;;;;;;;3.90;3.40;;;;;;;30.00;34.19;98592.13;109370;1254;64157;-23
2023/06/18 07:32:34;;;;;;;5.10;3.70;;;;;;;30.26;33.51;98587.52;109388;1254;64268;-23
2023/06/18 07:35:01;;;;;;;3.40;3.10;;;;;;;30.64;32.09;98587.23;109293;1254;63818;-23
2023/06/18 07:37:29;;;;;;;4.90;3.20;;;;;;;30.55;30.59;98584.15;109313;1254;58866;-23
2023/06/18 07:39:56;;;;;;;5.00;3.40;;;;;;;30.54;30.49;98582.33;109445;1254;58578;-23
2023/06/18 07:42:24;;;;;;;4.80;3.20;;;;;;;30.50;31.73;98581.45;109424;1254;64293;-23
2023/06/18 07:44:52;;;;;;;4.20;2.90;;;;;;;30.70;31.35;98587.62;109367;1254;65458;-23
2023/06/18 07:47:20;;;;;;;3.40;3.10;;;;;;;31.00;30.30;98590.16;109375;1254;63797;-23
2023/06/18 07:49:48;;;;;;;5.50;3.90;;;;;;;31.11;29.84;98586.12;109429;1254;58838;-23
2023/06/18 07:52:15;;;;;;;6.20;3.20;;;;;;;31.21;27.93;98594.14;109407;1254;58764;-23
2023/06/18 07:54:43;;;;;;;4.80;3.20;;;;;;;31.37;28.09;98593.34;109290;1255;64143;-23
2023/06/18 07:57:11;;;;;;;4.10;3.40;;;;;;;31.62;27.82;98591.27;109383;1254;65420;-23
2023/06/18 07:59:38;;;;;;;4.20;3.30;;;;;;;31.75;27.60;98593.88;109340;1254;62503;-23
2023/06/18 08:02:06;;;;;;;3.80;3.20;;;;;;;31.83;29.70;98596.52;109324;1254;58773;-23
2023/06/18 08:04:33;;;;;;;4.60;3.20;;;;;;;31.67;29.57;98591.78;109390;1254;58768;-23
2023/06/18 08:07:01;;;;;;;4.10;2.80;;;;;;;31.66;29.96;98592.64;109401;1254;64132;-23
2023/06/18 08:09:28;;;;;;;3.40;3.10;;;;;;;31.80;29.43;98596.31;109368;1254;65365;-23
2023/06/18 08:11:56;;;;;;;7.70;3.30;;;;;;;31.84;28.83;98595.61;109213;1254;62541;-23
2023/06/18 08:14:27;;;;;;;4.00;3.50;;;;;;;31.62;29.13;98597.62;109338;1254;58824;-23
2023/06/18 08:16:55;;;;;;;5.60;3.10;;;;;;;31.42;28.93;98596.98;109221;1254;58824;-23
2023/06/18 08:19:22;;;;;;;5.60;3.10;;;;;;;31.62;28.60;98597.23;109399;1254;62955;-23
2023/06/18 08:21:51;;;;;;;6.70;3.50;;;;;;;31.92;27.80;98596.26;109399;1254;64100;-23
2023/06/18 08:24:18;;;;;;;3.50;2.90;;;;;;;31.86;27.95;98597.04;109349;1254;62975;-23
2023/06/18 08:26:46;;;;;;;5.00;3.10;;;;;;;32.04;29.25;98599.52;109165;1254;58760;-23
2023/06/18 08:29:15;;;;;;;3.50;3.20;;;;;;;32.28;29.44;98599.66;109377;1254;58717;-23
2023/06/18 08:31:42;;;;;;;3.90;3.30;;;;;;;32.48;29.53;98596.78;109214;1255;64145;-23
2023/06/18 08:34:10;;;;;;;3.90;3.30;;;;;;;32.67;28.49;98592.21;109264;1254;74249;-24
2023/06/18 08:36:37;;;;;;;11.40;3.70;;;;;;;32.54;26.63;98591.30;109205;1254;63733;-23
2023/06/18 08:39:05;;;;;;;6.10;3.40;;;;;;;32.26;28.25;98597.04;109214;1254;58840;-23
2023/06/18 08:41:33;;;;;;;4.90;3.20;;;;;;;32.22;28.34;98594.36;109254;1254;58828;-23
2023/06/18 08:44:00;;;;;;;4.30;2.90;;;;;;;32.48;27.61;98595.82;109241;1254;64592;-23
2023/06/18 08:46:28;;;;;;;6.60;3.40;;;;;;;32.70;25.26;98595.21;109238;1254;64169;-23
2023/06/18 08:48:58;;;;;;;6.00;3.50;;;;;;;32.85;23.55;98593.80;109224;1254;62458;-23
2023/06/18 08:51:26;;;;;;;5.10;3.40;;;;;;;32.53;22.85;98595.00;109124;1257;58779;-23
2023/06/18 08:54:13;;;;;;;5.30;3.50;;;;;;;32.48;23.72;98598.44;109274;1254;58840;-23
2023/06/18 08:56:45;;;;;;;4.00;3.40;;;;;;;33.16;24.70;98597.91;109336;1255;63040;-23
2023/06/18 08:59:13;;;;;;;;;;;;;;;33.72;24.37;98600.92;109078;1256;65422;-24
2023/06/18 09:01:41;;;;;;;8.70;3.10;;;;;;;33.87;23.88;98599.89;109105;1255;63829;-23
2023/06/18 09:04:10;;;;;;;4.30;3.30;;;;;;;33.67;24.40;98598.09;109110;1256;58834;-23
2023/06/18 09:06:37;;;;;;;3.70;3.30;;;;;;;33.44;24.63;98593.21;109056;1255;58699;-23
2023/06/18 09:09:08;;;;;;;4.10;3.80;;;;;;;32.95;23.62;98595.16;109212;1254;64252;-23
2023/06/18 09:11:35;;;;;;;4.70;4.20;;;;;;;31.91;23.17;98597.08;109332;1255;65408;-23
2023/06/18 09:14:04;;;;;;;5.60;3.60;;;;;;;30.84;25.35;98595.72;109303;1255;63718;-23
2023/06/18 09:16:32;;;;;;;4.60;3.50;;;;;;;30.64;25.39;98591.54;109197;1256;60078;-23
2023/06/18 09:18:59;;;;;;;4.50;3.30;;;;;;;30.85;27.07;98598.47;109290;1255;58798;-23
2023/06/18 09:21:39;;;;;;;5.50;3.90;;;;;;;30.95;26.46;98599.36;109217;1254;63715;-23
2023/06/18 09:24:07;;;;;;;6.50;3.70;;;;;;;30.98;24.90;98596.98;109151;1254;65427;-24
2023/06/18 09:26:35;;;;;;;4.70;4.00;;;;;;;31.16;24.43;98595.80;109065;1256;62462;-24
2023/06/18 09:29:07;;;;;;;5.10;3.90;;;;;;;31.53;24.42;98589.52;109300;1255;58795;-23
2023/06/18 09:31:36;;;;;;;7.60;4.20;;;;;;;31.55;22.92;98586.44;109161;1254;58652;-23
2023/06/18 09:34:17;;;;;;;4.30;3.50;;;;;;;31.36;23.37;98583.60;109056;1255;64931;-23
2023/06/18 09:36:46;;;;;;;6.80;4.00;;;;;;;31.83;23.68;98581.54;109177;1255;64135;-24
2023/06/18 09:39:21;;;;;;;5.20;4.00;;;;;;;32.32;24.35;98579.17;109051;1254;63755;-23
2023/06/18 09:41:51;;;;;;;6.50;3.80;;;;;;;32.60;23.47;98576.65;109186;1258;58813;-23
2023/06/18 09:44:19;;;;;;;5.40;4.10;;;;;;;32.72;21.69;98573.52;109135;1256;58785;-23
2023/06/18 09:46:55;;;;;;;6.00;4.10;;;;;;;33.05;23.32;98572.41;109073;1256;65071;-23
2023/06/18 09:49:23;;;;;;;6.70;4.30;;;;;;;33.63;22.39;98576.31;109124;1255;64125;-23
2023/06/18 09:51:51;;;;;;;4.30;3.30;;;;;;;34.21;22.24;98572.72;109089;1255;63761;-23
2023/06/18 09:54:20;;;;;;;7.70;4.00;;;;;;;33.87;20.57;98573.68;109040;1256;58818;-23
2023/06/18 09:57:02;;;;;;;5.10;3.90;;;;;;;33.90;21.27;98569.52;109037;1256;58845;-23
2023/06/18 09:59:31;;;;;;;4.30;3.90;;;;;;;33.65;21.40;98571.63;109033;1256;64971;-23
2023/06/18 10:01:58;;;;;;;6.80;3.70;;;;;;;33.35;23.12;98569.80;109079;1256;65673;-23
2023/06/18 10:04:26;;;;;;;4.00;3.60;;;;;;;33.98;22.89;98570.95;109090;1256;63759;-23
2023/06/18 10:06:55;;;;;;;4.40;3.90;;;;;;;34.39;20.90;98567.38;109051;1259;58874;-23
2023/06/18 10:09:22;;;;;;;8.30;4.30;;;;;;;34.65;20.78;98562.70;109077;1256;58842;-23
2023/06/18 10:11:51;;;;;;;6.00;3.80;;;;;;;34.95;20.66;98567.27;109112;1256;63878;-23
2023/06/18 10:14:22;;;;;;;4.00;3.60;;;;;;;35.28;22.15;98567.79;109038;1256;65411;-23
2023/06/18 10:16:51;;;;;;;3.90;3.60;;;;;;;35.73;22.00;98567.75;109063;1256;63761;-23
2023/06/18 10:19:23;;;;;;;4.70;4.00;;;;;;;36.13;21.68;98566.62;109042;1256;58799;-23
2023/06/18 10:22:03;;;;;;;4.40;3.80;;;;;;;36.37;20.67;98564.48;109040;1262;58763;-23
2023/06/18 10:24:41;;;;;;;5.10;3.70;;;;;;;36.06;21.28;98564.15;109116;1256;63659;-23
2023/06/18 10:27:09;;;;;;;4.90;3.80;;;;;;;34.95;21.06;98562.55;109042;1256;64262;-23
2023/06/18 10:29:36;;;;;;;4.40;3.60;;;;;;;34.65;22.88;98562.81;109088;1256;63777;-23
2023/06/18 10:32:04;;;;;;;4.90;3.80;;;;;;;34.98;24.60;98563.95;109124;1256;58887;-23
2023/06/18 10:34:32;;;;;;;4.00;3.70;;;;;;;35.03;22.76;98566.04;109030;1256;58712;-23
2023/06/18 10:37:00;;;;;;;4.60;3.80;;;;;;;34.74;22.28;98561.36;109071;1256;63653;-23
2023/06/18 10:39:28;;;;;;;4.20;3.80;;;;;;;34.50;23.10;98563.12;109086;1256;64121;-23
2023/06/18 10:41:56;;;;;;;7.80;3.50;;;;;;;34.24;24.50;98562.76;109135;1256;63853;-23
2023/06/18 10:45:11;;;;;;;4.90;4.40;;;;;;;34.38;24.73;98562.48;109045;1256;58775;-23
2023/06/18 10:47:40;;;;;;;4.10;3.70;;;;;;;35.07;24.66;98558.94;109031;1256;58702;-23
2023/06/18 10:50:07;;;;;;;4.10;3.60;;;;;;;35.37;23.65;98560.09;109082;1256;64909;-23
2023/06/18 10:52:36;;;;;;;4.80;3.70;;;;;;;35.41;22.75;98559.09;109085;1256;64344;-23
2023/06/18 10:55:26;;;;;;;5.10;3.70;;;;;;;35.60;22.68;98558.28;108994;1257;62524;-23
2023/06/18 10:58:04;;;;;;;4.30;3.70;;;;;;;35.70;20.44;98555.98;109012;1257;58828;-24
2023/06/18 11:00:41;;;;;;;4.80;3.70;;;;;;;35.68;20.58;98556.89;109004;1257;58847;-23
2023/06/18 11:03:13;;;;;;;5.00;3.30;;;;;;;35.49;22.28;98554.45;109001;1257;64254;-23
2023/06/18 11:05:46;;;;;;;4.70;3.60;;;;;;;35.35;21.51;98553.86;109055;1257;65443;-23
2023/06/18 11:08:15;;;;;;;3.70;3.40;;;;;;;34.93;21.34;98549.58;109068;1257;63737;-23
2023/06/18 11:10:49;;;;;;;4.40;3.40;;;;;;;35.21;21.91;98553.27;108994;1258;58770;-24
2023/06/18 11:13:17;;;;;;;4.80;3.50;;;;;;;35.44;21.02;98551.46;109096;1257;58723;-23
2023/06/18 11:15:52;;;;;;;6.20;4.10;;;;;;;35.14;20.79;98550.52;109085;1257;64934;-23
2023/06/18 11:18:25;;;;;;;6.80;4.10;;;;;;;34.63;21.29;98548.58;109087;1261;65588;-23
2023/06/18 11:20:54;;;;;;;6.90;3.60;;;;;;;34.38;22.85;98552.05;109115;1257;63827;-24
2023/06/18 11:23:23;;;;;;;4.80;3.80;;;;;;;34.41;24.26;98554.05;108956;1258;58838;-24
2023/06/18 11:25:50;;;;;;;5.40;3.40;;;;;;;34.67;24.07;98549.74;109012;1257;58723;-23
2023/06/18 11:28:18;;;;;;;5.60;3.70;;;;;;;34.72;21.70;98547.77;109087;1257;63695;-24
2023/06/18 11:30:51;;;;;;;3.80;3.50;;;;;;;34.82;23.10;98550.63;109050;1257;65405;-23
2023/06/18 11:33:23;;;;;;;6.60;3.90;;;;;;;35.04;23.99;98554.51;108988;1257;63807;-24
2023/06/18 11:35:52;;;;;;;3.70;3.40;;;;;;;35.18;22.20;98550.84;109021;1257;58753;-23
2023/06/18 11:38:20;;;;;;;4.00;3.50;;;;;;;35.17;21.78;98548.10;109067;1257;58800;-23
2023/06/18 11:40:52;;;;;;;5.20;3.60;;;;;;;34.96;23.34;98551.45;109041;1257;64967;-23
2023/06/18 11:43:20;;;;;;;4.20;3.80;;;;;;;34.69;21.87;98546.26;109020;1257;65484;-23
2023/06/18 11:45:48;;;;;;;4.20;3.50;;;;;;;34.25;22.74;98549.55;109119;1257;63737;-24
2023/06/18 11:48:17;;;;;;;4.10;3.70;;;;;;;33.91;21.56;98547.56;109054;1257;58794;-23
2023/06/18 11:50:46;;;;;;;4.20;3.80;;;;;;;33.30;21.76;98547.45;108987;1257;58861;-23
2023/06/18 11:53:14;;;;;;;4.50;3.60;;;;;;;33.46;22.43;98543.39;109085;1257;65065;-23